Time;durP1;ratioP1;P1;durP2;ratioP2;P2;SDS_P1;SDS_P2;PMS_P1;PMS_P2;Temp;Humidity;BMP_temperature;BMP_pressure;BME280_temperature;BME280_humidity;BME280_pressure;Samples;Min_cycle;Max_cycle;Signal;HPM_P1;HPM_P2
2023/09/23 00:01:32;;;;;;;20.50;9.35;;;16.70;76.10;;;;;;4953874;29;20023;-83
2023/09/23 00:03:58;;;;;;;14.55;9.07;;;16.70;76.20;;;;;;4937008;29;20175;-82
2023/09/23 00:06:24;;;;;;;19.15;10.45;;;16.70;76.20;;;;;;4953734;29;20055;-83
2023/09/23 00:08:50;;;;;;;16.95;9.57;;;16.70;76.30;;;;;;4953563;29;20078;-82
2023/09/23 00:11:18;;;;;;;15.60;10.40;;;16.70;76.30;;;;;;4953540;29;20044;-82
2023/09/23 00:13:44;;;;;;;15.13;9.10;;;16.70;76.30;;;;;;4936431;29;20019;-83
2023/09/23 00:16:14;;;;;;;15.75;9.43;;;16.70;76.30;;;;;;4953772;29;20031;-82
2023/09/23 00:18:41;;;;;;;18.67;9.43;;;16.60;76.50;;;;;;4936499;29;20038;-82
2023/09/23 00:21:07;;;;;;;16.00;9.43;;;16.60;76.60;;;;;;4953933;29;20110;-82
2023/09/23 00:23:34;;;;;;;19.27;9.65;;;16.60;76.60;;;;;;4953547;29;20059;-82
2023/09/23 00:26:01;;;;;;;15.23;9.88;;;16.60;76.70;;;;;;4954072;29;20035;-83
2023/09/23 00:28:31;;;;;;;19.43;9.93;;;16.60;77.40;;;;;;4954135;28;20110;-82
2023/09/23 00:31:10;;;;;;;17.80;9.30;;;16.50;76.70;;;;;;4953629;29;20393;-84
2023/09/23 00:33:39;;;;;;;13.25;9.27;;;16.50;77.00;;;;;;4935283;29;20034;-83
2023/09/23 00:36:09;;;;;;;16.17;10.20;;;16.50;77.00;;;;;;4953410;29;20079;-83
2023/09/23 00:38:38;;;;;;;19.30;10.68;;;16.50;77.10;;;;;;4953558;29;20031;-82
2023/09/23 00:41:06;;;;;;;20.50;9.90;;;16.50;77.40;;;;;;4953753;29;20119;-83
2023/09/23 00:43:32;;;;;;;12.20;8.73;;;16.40;77.60;;;;;;4953472;28;20023;-83
2023/09/23 00:46:00;;;;;;;15.13;9.43;;;16.40;77.70;;;;;;4953694;29;20102;-83
2023/09/23 00:48:26;;;;;;;18.27;11.48;;;16.30;77.90;;;;;;4958451;29;20031;-83
2023/09/23 00:50:54;;;;;;;18.80;10.45;;;16.30;78.70;;;;;;4967520;29;20115;-83
2023/09/23 00:53:22;;;;;;;20.65;11.25;;;16.30;78.30;;;;;;4936648;29;20153;-82
2023/09/23 00:55:52;;;;;;;21.75;10.05;;;16.20;78.70;;;;;;4937300;29;20127;-83
2023/09/23 00:58:21;;;;;;;17.17;10.30;;;16.20;78.60;;;;;;4943626;29;20031;-83
2023/09/23 01:00:48;;;;;;;18.65;9.18;;;16.20;78.70;;;;;;4971060;29;20018;-82
2023/09/23 01:03:15;;;;;;;20.83;10.20;;;16.20;78.90;;;;;;4935907;29;20019;-84
2023/09/23 01:05:43;;;;;;;16.80;10.43;;;16.20;78.80;;;;;;4953503;29;20047;-83
2023/09/23 01:08:19;;;;;;;15.43;9.70;;;16.20;79.20;;;;;;4936095;29;20114;-84
2023/09/23 01:10:49;;;;;;;17.65;10.35;;;16.10;79.20;;;;;;4953115;28;20067;-84
2023/09/23 01:13:19;;;;;;;20.50;10.65;;;16.10;79.50;;;;;;4956281;29;20392;-82
2023/09/23 01:15:46;;;;;;;11.63;8.93;;;16.10;79.60;;;;;;4939423;29;20078;-84
2023/09/23 01:18:13;;;;;;;17.48;8.65;;;16.10;79.50;;;;;;4956694;29;20023;-83
2023/09/23 01:20:41;;;;;;;11.52;8.85;;;16.10;79.50;;;;;;4956647;29;20540;-83
2023/09/23 01:23:10;;;;;;;17.23;9.07;;;16.10;79.30;;;;;;4956404;29;20027;-82
2023/09/23 01:25:37;;;;;;;13.73;9.43;;;16.10;79.70;;;;;;4939621;29;20023;-82
2023/09/23 01:28:13;;;;;;;18.52;8.82;;;16.00;79.80;;;;;;4939293;29;20031;-83
2023/09/23 01:30:40;;;;;;;20.57;8.97;;;16.00;80.70;;;;;;4956201;29;20520;-83
2023/09/23 01:33:16;;;;;;;11.50;9.18;;;15.90;80.30;;;;;;4956383;29;20273;-82
2023/09/23 01:35:42;;;;;;;14.38;8.40;;;15.90;80.60;;;;;;4957240;29;20034;-82
2023/09/23 01:38:08;;;;;;;15.07;9.30;;;15.90;80.60;;;;;;4956889;29;20038;-83
2023/09/23 01:40:36;;;;;;;18.83;9.02;;;15.90;80.60;;;;;;4956380;28;20111;-81
2023/09/23 01:43:03;;;;;;;15.93;9.70;;;15.80;80.90;;;;;;4956236;29;20019;-83
2023/09/23 01:45:30;;;;;;;21.17;10.43;;;15.80;81.60;;;;;;4938628;29;20059;-82
2023/09/23 01:47:56;;;;;;;16.70;9.20;;;15.80;81.40;;;;;;4956237;29;20023;-82
2023/09/23 01:50:29;;;;;;;13.67;8.10;;;15.80;81.30;;;;;;4938971;29;20380;-83
2023/09/23 01:52:59;;;;;;;16.65;8.73;;;15.70;81.50;;;;;;4956248;29;20366;-82
2023/09/23 01:55:25;;;;;;;13.73;8.95;;;15.70;81.80;;;;;;4939264;29;20031;-83
2023/09/23 01:57:51;;;;;;;15.52;10.00;;;15.70;81.90;;;;;;4955868;29;20023;-82
2023/09/23 02:00:28;;;;;;;17.95;9.10;;;15.60;82.10;;;;;;4938687;29;20050;-82
2023/09/23 02:02:55;;;;;;;12.40;8.43;;;15.60;82.10;;;;;;4938647;29;20016;-83
2023/09/23 02:05:24;;;;;;;10.93;9.13;;;15.60;81.60;;;;;;4938898;29;20030;-84
2023/09/23 02:07:50;;;;;;;12.23;8.40;;;15.60;81.80;;;;;;4955592;29;20050;-82
2023/09/23 02:10:21;;;;;;;12.18;7.90;;;15.60;82.10;;;;;;4955956;29;20022;-83
2023/09/23 02:12:47;;;;;;;13.32;9.85;;;15.60;82.60;;;;;;4938105;29;20396;-83
2023/09/23 02:15:14;;;;;;;16.02;8.90;;;15.60;82.50;;;;;;4955598;29;20099;-83
2023/09/23 02:17:43;;;;;;;13.38;9.00;;;15.50;82.70;;;;;;4935339;29;20035;-83
2023/09/23 02:20:20;;;;;;;15.13;9.07;;;15.50;82.40;;;;;;4955951;29;20076;-85
2023/09/23 02:22:53;;;;;;;11.20;9.38;;;15.50;82.00;;;;;;4957033;28;20531;-84
2023/09/23 02:25:19;;;;;;;17.17;8.68;;;15.50;82.30;;;;;;4958791;29;20032;-84
2023/09/23 02:27:46;;;;;;;16.05;9.93;;;15.50;82.40;;;;;;4957856;28;20378;-83
2023/09/23 02:30:13;;;;;;;18.08;8.82;;;15.40;82.90;;;;;;4955511;29;20096;-83
2023/09/23 02:32:44;;;;;;;15.90;9.40;;;15.40;82.60;;;;;;4955382;29;20085;-83
2023/09/23 02:35:11;;;;;;;11.80;8.55;;;15.40;82.30;;;;;;4955653;29;20042;-83
2023/09/23 02:37:48;;;;;;;14.07;10.00;;;15.50;82.70;;;;;;4955584;28;20027;-83
2023/09/23 02:40:15;;;;;;;18.73;9.80;;;15.40;82.70;;;;;;4955135;29;20027;-83
2023/09/23 02:42:45;;;;;;;13.90;10.18;;;15.40;82.40;;;;;;4955252;29;20508;-83
2023/09/23 02:45:13;;;;;;;15.60;9.20;;;15.40;82.40;;;;;;4952370;28;20030;-83
2023/09/23 02:47:41;;;;;;;13.57;9.40;;;15.50;82.40;;;;;;4951616;29;20027;-84
2023/09/23 02:50:09;;;;;;;15.48;9.38;;;15.40;82.40;;;;;;4970486;28;20474;-83
2023/09/23 02:52:39;;;;;;;18.67;10.27;;;15.40;82.70;;;;;;4955912;28;20090;-83
2023/09/23 02:55:14;;;;;;;17.73;9.93;;;15.40;82.90;;;;;;4938184;29;20457;-83
2023/09/23 02:57:45;;;;;;;15.88;9.85;;;15.40;82.90;;;;;;4954720;28;20038;-82
2023/09/23 03:00:17;;;;;;;17.67;10.18;;;15.40;83.10;;;;;;4954947;29;20035;-83
2023/09/23 03:02:45;;;;;;;14.02;10.05;;;15.40;83.00;;;;;;4937466;28;20034;-83
2023/09/23 03:05:16;;;;;;;11.93;9.15;;;15.30;83.30;;;;;;4937482;29;20469;-83
2023/09/23 03:07:42;;;;;;;17.08;9.98;;;15.30;83.60;;;;;;4937647;28;20067;-84
2023/09/23 03:10:12;;;;;;;19.38;10.35;;;15.30;83.80;;;;;;4955334;28;20016;-82
2023/09/23 03:12:51;;;;;;;13.30;9.65;;;15.20;83.90;;;;;;4939203;28;20563;-83
2023/09/23 03:15:20;;;;;;;15.63;10.43;;;15.30;83.80;;;;;;4961716;28;20019;-82
2023/09/23 03:17:50;;;;;;;16.95;9.52;;;15.20;84.00;;;;;;4958623;28;20023;-81
2023/09/23 03:20:26;;;;;;;15.95;10.93;;;15.20;84.60;;;;;;4957031;28;20098;-81
2023/09/23 03:22:53;;;;;;;21.58;10.80;;;15.20;84.10;;;;;;4938404;28;20031;-82
2023/09/23 03:25:20;;;;;;;18.42;10.05;;;15.20;84.30;;;;;;4955437;28;20015;-82
2023/09/23 03:27:52;;;;;;;14.98;10.15;;;15.20;84.10;;;;;;4955562;28;20027;-82
2023/09/23 03:30:19;;;;;;;19.15;11.00;;;15.20;84.40;;;;;;4947316;28;20054;-82
2023/09/23 03:32:45;;;;;;;17.30;10.65;;;15.20;84.60;;;;;;4955333;29;20027;-84
2023/09/23 03:35:20;;;;;;;18.13;11.10;;;15.20;85.00;;;;;;4936912;28;20485;-83
2023/09/23 03:37:50;;;;;;;23.70;11.73;;;15.20;85.10;;;;;;4937534;29;20438;-83
2023/09/23 03:40:20;;;;;;;15.93;9.85;;;15.20;85.30;;;;;;4937890;29;20563;-83
2023/09/23 03:42:48;;;;;;;18.42;10.77;;;15.20;86.00;;;;;;4954690;29;20094;-83
2023/09/23 03:45:15;;;;;;;19.42;12.13;;;15.10;85.50;;;;;;4955763;28;20376;-82
2023/09/23 03:47:41;;;;;;;17.58;10.52;;;15.10;85.40;;;;;;4937064;29;20043;-83
2023/09/23 03:50:08;;;;;;;21.02;12.32;;;15.20;85.10;;;;;;4937057;29;20035;-83
2023/09/23 03:52:35;;;;;;;18.55;11.93;;;15.20;85.00;;;;;;4954658;29;20040;-82
2023/09/23 03:55:01;;;;;;;;;;;15.20;84.90;;;;;;4954984;29;20023;-83
2023/09/23 03:57:27;;;;;;;19.00;11.07;;;15.20;84.40;;;;;;4937534;29;20001;-83
2023/09/23 03:59:53;;;;;;;18.95;11.20;;;15.30;84.90;;;;;;4962086;29;20096;-81
2023/09/23 04:02:18;;;;;;;17.15;11.27;;;15.30;85.50;;;;;;4961283;29;20066;-86
2023/09/23 04:04:49;;;;;;;19.55;11.20;;;15.40;85.10;;;;;;4953989;29;20087;-83
2023/09/23 04:07:16;;;;;;;16.75;11.00;;;15.50;85.70;;;;;;4937128;29;20524;-82
2023/09/23 04:09:42;;;;;;;13.35;11.30;;;15.70;84.60;;;;;;4954428;28;20019;-83
2023/09/23 04:12:09;;;;;;;16.38;11.95;;;16.00;83.70;;;;;;4936823;29;20046;-83
2023/09/23 04:14:35;;;;;;;15.18;11.07;;;16.30;82.60;;;;;;4936502;29;20054;-84
2023/09/23 04:17:00;;;;;;;20.60;11.63;;;16.60;81.30;;;;;;4954081;29;20035;-83
2023/09/23 04:19:26;;;;;;;16.63;11.27;;;16.60;80.30;;;;;;4936534;29;20027;-82
2023/09/23 04:21:53;;;;;;;16.90;11.32;;;16.50;79.80;;;;;;4954270;29;20333;-83
2023/09/23 04:24:20;;;;;;;17.80;12.35;;;16.30;80.00;;;;;;4966718;28;20490;-83
2023/09/23 04:26:47;;;;;;;18.33;11.27;;;16.20;81.00;;;;;;4953952;28;20408;-83
2023/09/23 04:29:14;;;;;;;19.00;10.57;;;16.20;81.10;;;;;;4957447;28;20047;-83
2023/09/23 04:31:40;;;;;;;20.00;10.20;;;16.10;80.80;;;;;;4953722;28;20055;-82
2023/09/23 04:34:06;;;;;;;17.80;11.60;;;16.00;80.90;;;;;;4936808;29;20059;-83
2023/09/23 04:36:34;;;;;;;13.82;9.32;;;15.90;81.10;;;;;;4939816;29;20071;-83
2023/09/23 04:38:59;;;;;;;20.00;12.07;;;15.80;81.00;;;;;;4973767;28;20166;-83
2023/09/23 04:41:25;;;;;;;16.17;11.38;;;15.90;81.30;;;;;;4958089;28;20039;-83
2023/09/23 04:43:51;;;;;;;20.63;11.40;;;15.80;81.80;;;;;;4935926;29;20030;-83
2023/09/23 04:46:17;;;;;;;18.27;10.55;;;15.80;82.10;;;;;;4954012;28;20023;-83
2023/09/23 04:48:43;;;;;;;16.45;11.43;;;15.90;81.40;;;;;;4940028;29;20082;-82
2023/09/23 04:51:09;;;;;;;20.60;11.15;;;15.90;81.50;;;;;;4957241;29;20027;-82
2023/09/23 04:53:35;;;;;;;18.17;12.38;;;15.80;81.30;;;;;;4957143;29;20023;-82
2023/09/23 04:56:10;;;;;;;17.35;11.48;;;15.90;81.90;;;;;;4957482;29;20362;-82
2023/09/23 04:58:36;;;;;;;16.70;11.07;;;15.90;81.80;;;;;;4939457;29;20031;-83
2023/09/23 05:01:03;;;;;;;18.58;11.10;;;15.90;81.60;;;;;;4956814;29;20030;-82
2023/09/23 05:03:29;;;;;;;18.55;11.40;;;15.90;81.30;;;;;;4956990;29;20030;-82
2023/09/23 05:05:55;;;;;;;19.90;11.38;;;16.00;81.70;;;;;;4939812;28;20639;-83
2023/09/23 05:08:21;;;;;;;18.20;10.05;;;16.00;81.80;;;;;;4956855;29;20098;-82
2023/09/23 05:10:47;;;;;;;20.00;12.10;;;16.00;81.10;;;;;;4956967;28;20033;-82
2023/09/23 05:13:17;;;;;;;17.05;10.90;;;16.00;81.60;;;;;;4956424;28;20019;-82
2023/09/23 05:15:43;;;;;;;21.13;16.60;;;16.10;81.50;;;;;;4939224;29;20112;-83
2023/09/23 05:18:09;;;;;;;18.23;11.55;;;16.10;82.00;;;;;;4957026;29;20100;-82
2023/09/23 05:20:34;;;;;;;16.80;10.85;;;16.20;81.30;;;;;;4957028;29;20031;-81
2023/09/23 05:23:07;;;;;;;23.27;11.88;;;16.20;81.30;;;;;;4953380;28;20042;-83
2023/09/23 05:25:33;;;;;;;20.45;10.90;;;16.20;81.00;;;;;;4957268;29;20023;-84
2023/09/23 05:27:59;;;;;;;16.20;11.10;;;16.30;80.40;;;;;;4939354;29;20031;-84
2023/09/23 05:30:28;;;;;;;17.42;11.70;;;16.30;80.20;;;;;;4948701;29;20144;-84
2023/09/23 05:32:53;;;;;;;20.33;10.93;;;16.40;80.10;;;;;;4957990;29;20099;-83
2023/09/23 05:35:19;;;;;;;16.35;11.07;;;16.50;80.20;;;;;;4965655;29;20027;-82
2023/09/23 05:37:47;;;;;;;19.40;11.70;;;16.50;80.30;;;;;;4959197;29;20102;-83
2023/09/23 05:40:36;;;;;;;17.05;10.55;;;16.50;80.00;;;;;;4938875;29;20023;-84
2023/09/23 05:43:00;;;;;;;17.38;9.98;;;16.60;79.70;;;;;;4949610;28;20043;-85
2023/09/23 05:45:26;;;;;;;28.25;11.20;;;16.70;78.70;;;;;;4953062;29;20038;-81
2023/09/23 05:47:52;;;;;;;26.80;10.73;;;16.80;79.00;;;;;;4954190;29;20031;-83
2023/09/23 05:50:19;;;;;;;21.23;10.18;;;16.90;78.10;;;;;;4955109;29;20023;-84
2023/09/23 05:52:45;;;;;;;21.52;11.40;;;16.90;77.90;;;;;;4956010;29;20043;-84
2023/09/23 05:55:12;;;;;;;19.33;10.38;;;17.00;77.70;;;;;;4956514;28;20028;-87
2023/09/23 05:57:40;;;;;;;15.57;9.32;;;17.00;77.00;;;;;;4939099;28;20388;-83
2023/09/23 06:00:08;;;;;;;24.63;11.32;;;17.10;76.80;;;;;;4938693;29;20617;-83
2023/09/23 06:02:34;;;;;;;20.40;10.20;;;17.20;77.20;;;;;;4938719;29;20050;-85
2023/09/23 06:05:03;;;;;;;22.02;10.38;;;17.20;76.70;;;;;;4938674;29;20035;-83
2023/09/23 06:07:31;;;;;;;17.55;10.50;;;17.30;76.60;;;;;;4956032;28;20054;-85
2023/09/23 06:09:59;;;;;;;19.15;9.65;;;17.30;76.20;;;;;;4955863;29;20043;-85
2023/09/23 06:12:29;;;;;;;19.38;9.70;;;17.40;75.40;;;;;;4938435;29;20184;-83
2023/09/23 06:14:57;;;;;;;19.60;9.98;;;17.50;75.40;;;;;;4955449;28;20086;-85
2023/09/23 06:17:23;;;;;;;20.75;10.18;;;17.60;74.80;;;;;;4938509;29;20193;-84
2023/09/23 06:19:51;;;;;;;18.83;10.77;;;17.70;74.30;;;;;;4955857;29;20115;-84
2023/09/23 06:22:17;;;;;;;;;;;17.80;74.40;;;;;;4956883;29;20289;-82
2023/09/23 06:24:43;;;;;;;22.27;9.48;;;17.80;74.50;;;;;;4945212;29;19914;-84
2023/09/23 06:27:09;;;;;;;13.40;9.18;;;17.90;74.00;;;;;;4959026;29;20023;-84
2023/09/23 06:29:35;;;;;;;23.15;10.77;;;17.90;73.40;;;;;;4948711;29;20125;-84
2023/09/23 06:32:00;;;;;;;21.05;8.93;;;18.10;73.40;;;;;;4955768;29;20129;-85
2023/09/23 06:34:26;;;;;;;34.33;10.70;;;18.20;72.90;;;;;;4955561;29;20043;-85
2023/09/23 06:36:52;;;;;;;15.10;8.77;;;18.30;72.90;;;;;;4955601;29;20019;-85
2023/09/23 06:39:20;;;;;;;21.98;10.23;;;18.30;72.10;;;;;;4955771;29;20543;-85
2023/09/23 06:41:46;;;;;;;17.48;8.45;;;18.40;71.80;;;;;;4937981;29;20110;-84
2023/09/23 06:44:12;;;;;;;20.50;9.23;;;18.50;71.60;;;;;;4955019;28;20047;-83
2023/09/23 06:46:41;;;;;;;22.88;10.60;;;18.60;71.30;;;;;;4955365;28;20046;-84
2023/09/23 06:49:07;;;;;;;24.70;9.38;;;18.70;71.30;;;;;;4951568;28;20393;-83
2023/09/23 06:51:32;;;;;;;21.00;9.20;;;18.80;70.30;;;;;;4939254;29;20039;-83
2023/09/23 06:53:58;;;;;;;21.25;9.48;;;19.00;70.20;;;;;;4939785;28;20035;-86
2023/09/23 06:56:24;;;;;;;17.67;9.68;;;19.00;70.00;;;;;;4939157;29;20030;-84
2023/09/23 06:58:50;;;;;;;20.92;9.77;;;19.20;69.90;;;;;;4950847;28;20038;-84
2023/09/23 07:01:17;;;;;;;15.23;8.95;;;19.30;69.50;;;;;;4955813;28;20449;-84
2023/09/23 07:03:43;;;;;;;24.20;8.98;;;19.40;69.20;;;;;;4955632;29;20023;-84
2023/09/23 07:06:09;;;;;;;14.57;8.00;;;19.50;69.00;;;;;;4955403;29;20027;-84
2023/09/23 07:08:35;;;;;;;13.77;6.95;;;19.70;68.30;;;;;;4960525;28;20026;-85
2023/09/23 07:11:01;;;;;;;15.85;9.00;;;19.80;67.20;;;;;;4967452;28;20054;-83
2023/09/23 07:13:26;;;;;;;14.75;8.00;;;20.00;67.20;;;;;;4954863;29;20023;-81
2023/09/23 07:15:52;;;;;;;19.77;7.95;;;20.90;66.00;;;;;;4954732;28;20027;-83
2023/09/23 07:18:18;;;;;;;12.38;6.90;;;22.70;63.20;;;;;;4937773;29;20110;-84
2023/09/23 07:20:44;;;;;;;14.32;7.63;;;24.60;57.20;;;;;;4954447;29;20023;-84
2023/09/23 07:23:10;;;;;;;19.20;7.00;;;26.10;54.60;;;;;;4954249;29;20053;-84
2023/09/23 07:25:39;;;;;;;14.30;7.03;;;27.60;52.20;;;;;;4955864;29;20023;-84
2023/09/23 07:28:10;;;;;;;12.65;7.65;;;28.90;48.70;;;;;;4954539;28;20027;-84
2023/09/23 07:30:36;;;;;;;11.32;7.22;;;29.60;47.50;;;;;;4944861;28;20058;-83
2023/09/23 07:33:02;;;;;;;16.65;6.70;;;30.30;45.80;;;;;;4959693;28;20031;-84
2023/09/23 07:35:32;;;;;;;13.45;6.78;;;30.10;44.30;;;;;;4954669;28;20031;-84
2023/09/23 07:37:59;;;;;;;14.48;7.05;;;29.70;44.40;;;;;;4934297;29;20087;-85
2023/09/23 07:40:26;;;;;;;18.08;6.18;;;29.50;45.10;;;;;;4947851;28;20571;-86
2023/09/23 07:42:53;;;;;;;13.77;6.57;;;29.50;44.70;;;;;;4937587;29;20054;-85
2023/09/23 07:45:19;;;;;;;10.17;5.90;;;29.40;44.60;;;;;;4956269;28;20042;-86
2023/09/23 07:47:45;;;;;;;11.00;6.70;;;29.20;44.40;;;;;;4943058;29;20035;-86
2023/09/23 07:50:11;;;;;;;13.52;6.03;;;29.00;45.10;;;;;;4943712;29;20396;-85
2023/09/23 07:52:37;;;;;;;10.83;6.07;;;29.90;44.50;;;;;;4950480;29;20124;-84
2023/09/23 07:55:04;;;;;;;12.55;7.07;;;31.00;43.00;;;;;;4952598;29;20770;-86
2023/09/23 07:57:32;;;;;;;8.95;5.82;;;31.90;42.00;;;;;;4954084;29;20050;-84
2023/09/23 07:59:58;;;;;;;18.13;6.15;;;32.00;40.70;;;;;;4968012;29;20019;-86
2023/09/23 08:02:25;;;;;;;14.32;5.82;;;31.80;40.80;;;;;;4965346;28;20023;-86
2023/09/23 08:04:51;;;;;;;7.65;5.28;;;31.40;41.00;;;;;;4943276;29;20039;-88
2023/09/23 08:07:17;;;;;;;13.23;6.57;;;31.80;40.50;;;;;;4959475;28;20107;-88
2023/09/23 08:09:43;;;;;;;12.50;5.57;;;32.10;40.30;;;;;;4956709;28;20039;-87
2023/09/23 08:12:09;;;;;;;11.60;5.40;;;33.10;40.40;;;;;;4956922;28;20035;-86
2023/09/23 08:14:35;;;;;;;10.93;6.15;;;34.10;38.20;;;;;;4957406;28;20104;-83
2023/09/23 08:17:01;;;;;;;12.75;7.13;;;33.10;38.30;;;;;;4954981;29;20055;-86
2023/09/23 08:19:27;;;;;;;14.17;6.03;;;32.40;39.20;;;;;;4962341;28;20399;-86
2023/09/23 08:21:53;;;;;;;14.43;6.18;;;32.20;39.50;;;;;;4958204;28;20277;-89
2023/09/23 08:24:20;;;;;;;17.40;7.18;;;32.80;40.30;;;;;;4960507;29;20397;-87
2023/09/23 08:26:47;;;;;;;14.60;6.03;;;34.10;39.40;;;;;;4958922;28;20134;-88
2023/09/23 08:29:14;;;;;;;12.73;6.15;;;34.70;37.20;;;;;;4942197;28;20055;-84
2023/09/23 08:31:40;;;;;;;9.18;5.40;;;34.80;37.10;;;;;;4958123;29;20054;-85
2023/09/23 08:34:09;;;;;;;9.63;5.13;;;35.30;36.10;;;;;;4958670;28;20019;-84
2023/09/23 08:36:36;;;;;;;11.77;5.63;;;34.40;35.90;;;;;;4958917;28;20270;-85
2023/09/23 08:39:07;;;;;;;15.52;6.10;;;34.60;36.30;;;;;;4962001;28;20019;-86
2023/09/23 08:41:34;;;;;;;19.30;6.78;;;34.60;36.40;;;;;;4959762;28;20129;-86
2023/09/23 08:44:04;;;;;;;11.57;5.88;;;35.40;36.30;;;;;;4964379;28;20019;-85
2023/09/23 08:46:31;;;;;;;9.75;6.18;;;;;;;;;;4953687;29;20135;-84
2023/09/23 08:48:59;;;;;;;9.52;5.00;;;36.70;35.70;;;;;;4960038;29;20028;-88
2023/09/23 08:51:27;;;;;;;10.52;6.10;;;37.40;33.60;;;;;;4961828;28;20032;-84
2023/09/23 08:53:54;;;;;;;8.68;5.00;;;35.80;34.20;;;;;;4957959;29;20023;-85
2023/09/23 08:56:20;;;;;;;9.00;5.40;;;34.70;35.70;;;;;;4957508;29;20547;-89
2023/09/23 08:58:48;;;;;;;;;;;35.20;35.30;;;;;;4942017;29;20140;-85
2023/09/23 09:01:16;;;;;;;12.23;5.53;;;35.20;35.60;;;;;;4941986;29;19961;-84
2023/09/23 09:03:42;;;;;;;10.75;4.85;;;35.30;35.50;;;;;;4958186;28;20027;-84
2023/09/23 09:06:27;;;;;;;9.65;5.15;;;35.80;34.50;;;;;;4964313;28;20398;-83
2023/09/23 09:08:53;;;;;;;10.90;5.93;;;36.20;35.20;;;;;;4935525;29;20031;-82
2023/09/23 09:11:26;;;;;;;16.10;5.35;;;;;;;;;;4956256;28;20130;-82
2023/09/23 09:13:52;;;;;;;7.95;4.72;;;;;;;;;;4937817;29;20422;-83
2023/09/23 09:16:20;;;;;;;14.20;4.95;;;;;;;;;;4956470;29;20035;-86
2023/09/23 09:18:50;;;;;;;7.00;4.03;;;;;;;;;;4939673;29;20315;-86
2023/09/23 09:21:16;;;;;;;9.80;5.40;;;;;;;;;;4954430;29;20047;-84
2023/09/23 09:23:42;;;;;;;11.27;4.60;;;;;;;;;;4939764;29;20024;-82
2023/09/23 09:26:09;;;;;;;13.98;4.70;;;;;;;;;;4939176;29;20167;-83
2023/09/23 09:28:36;;;;;;;7.60;4.80;;;;;;;;;;4944651;29;20031;-83
2023/09/23 09:31:02;;;;;;;;;;;;;;;;;;4957962;29;20044;-84
2023/09/23 09:33:29;;;;;;;12.05;4.68;;;;;;;;;;4956612;28;19918;-84
2023/09/23 09:35:55;;;;;;;10.23;5.15;;;;;;;;;;4939225;29;20047;-84
2023/09/23 09:38:23;;;;;;;11.55;4.53;;;;;;;;;;4956072;29;20035;-84
2023/09/23 09:40:51;;;;;;;9.52;4.50;;;;;;;;;;4956637;28;20102;-82
2023/09/23 09:43:18;;;;;;;7.40;4.32;;;;;;;;;;4943135;29;20493;-80
2023/09/23 09:45:44;;;;;;;8.95;4.32;;;;;;;;;;4941405;28;20392;-81
2023/09/23 09:48:12;;;;;;;9.90;5.47;;;;;;;;;;4965219;28;20042;-82
2023/09/23 09:50:40;;;;;;;10.55;4.93;;;;;;;;;;4960377;28;20102;-81
2023/09/23 09:53:06;;;;;;;6.78;4.15;;;;;;;;;;4939041;29;20027;-82
2023/09/23 09:55:32;;;;;;;;;;;;;;;;;;4956567;29;20023;-81
2023/09/23 09:58:01;;;;;;;15.02;5.20;;;;;;;;;;4938542;29;19907;-81
2023/09/23 10:00:27;;;;;;;10.90;4.65;;;36.10;34.50;;;;;;4939322;29;20110;-82
2023/09/23 10:03:02;;;;;;;9.50;4.55;;;34.20;33.80;;;;;;4956485;28;20015;-81
2023/09/23 10:05:32;;;;;;;8.13;5.07;;;34.30;33.90;;;;;;4960263;28;20035;-82
2023/09/23 10:07:59;;;;;;;6.25;4.40;;;34.60;33.70;;;;;;4967882;28;20046;-82
2023/09/23 10:10:36;;;;;;;6.57;4.88;;;35.10;33.40;;;;;;4970795;29;20019;-82
2023/09/23 10:13:17;;;;;;;7.70;4.28;;;35.10;33.40;;;;;;4956216;28;20118;-86
2023/09/23 10:15:43;;;;;;;9.75;5.35;;;;;;;;;;4939946;29;20560;-88
2023/09/23 10:18:17;;;;;;;14.93;7.00;;;33.70;33.30;;;;;;4939283;29;20023;-85
2023/09/23 10:20:51;;;;;;;8.82;5.80;;;;;;;;;;4948875;29;20024;-85
2023/09/23 10:23:18;;;;;;;11.35;5.82;;;30.10;37.40;;;;;;4965295;29;20019;-84
2023/09/23 10:25:45;;;;;;;10.27;4.75;;;28.20;39.70;;;;;;4952153;29;20023;-83
2023/09/23 10:28:24;;;;;;;8.90;5.38;;;27.80;40.10;;;;;;4935081;29;20047;-83
2023/09/23 10:31:04;;;;;;;6.85;4.82;;;27.60;40.20;;;;;;4955300;28;20082;-80
2023/09/23 10:33:35;;;;;;;9.02;5.07;;;27.20;40.50;;;;;;4955327;28;20043;-81
2023/09/23 10:36:03;;;;;;;15.90;6.45;;;26.80;41.00;;;;;;4929556;29;20485;-80
2023/09/23 10:38:34;;;;;;;12.57;6.40;;;26.60;41.40;;;;;;4937903;29;20031;-81
2023/09/23 10:41:01;;;;;;;11.32;5.07;;;26.40;41.10;;;;;;4939190;29;20496;-80
2023/09/23 10:43:27;;;;;;;12.30;5.25;;;26.30;41.40;;;;;;4937869;28;20110;-81
2023/09/23 10:45:56;;;;;;;10.23;5.28;;;26.10;41.40;;;;;;4939053;29;20040;-82
2023/09/23 10:48:22;;;;;;;5.35;4.18;;;26.00;40.80;;;;;;4938829;29;20049;-81
2023/09/23 10:50:50;;;;;;;9.90;5.65;;;25.80;41.20;;;;;;4937707;28;20023;-83
2023/09/23 10:53:18;;;;;;;10.07;4.60;;;25.50;42.10;;;;;;4937683;29;20480;-83
2023/09/23 10:55:44;;;;;;;6.38;4.95;;;25.40;42.50;;;;;;4954232;29;20023;-82
2023/09/23 10:58:10;;;;;;;9.55;4.20;;;25.40;42.80;;;;;;4937208;29;20034;-83
2023/09/23 11:00:41;;;;;;;7.95;4.90;;;25.40;42.50;;;;;;4954720;29;20023;-84
2023/09/23 11:03:14;;;;;;;8.27;4.93;;;25.20;42.70;;;;;;4954404;28;20098;-83
2023/09/23 11:05:43;;;;;;;11.38;5.47;;;25.20;43.00;;;;;;4937061;29;20066;-83
2023/09/23 11:08:11;;;;;;;6.15;4.32;;;25.20;42.90;;;;;;4939291;29;20067;-84
2023/09/23 11:10:41;;;;;;;10.77;5.70;;;25.10;42.80;;;;;;4951335;28;20039;-84
2023/09/23 11:13:08;;;;;;;12.68;5.53;;;25.00;43.30;;;;;;4954747;28;20023;-83
2023/09/23 11:15:36;;;;;;;5.75;3.70;;;25.10;43.50;;;;;;4936380;28;20027;-85
2023/09/23 11:18:06;;;;;;;11.90;5.28;;;25.20;42.80;;;;;;4955921;29;20030;-84
2023/09/23 11:20:33;;;;;;;11.23;6.18;;;25.10;43.40;;;;;;4957823;28;20031;-83
2023/09/23 11:23:05;;;;;;;7.32;6.05;;;25.10;43.40;;;;;;4954145;28;20030;-84
2023/09/23 11:25:41;;;;;;;7.00;4.65;;;25.20;43.40;;;;;;4954207;28;20031;-83
2023/09/23 11:28:36;;;;;;;7.70;4.65;;;25.10;42.80;;;;;;4954550;28;20094;-82
2023/09/23 11:31:02;;;;;;;9.32;6.10;;;25.00;42.90;;;;;;4950907;28;20059;-81
2023/09/23 11:33:28;;;;;;;15.13;6.43;;;25.00;43.20;;;;;;4951690;28;20039;-81
2023/09/23 11:35:54;;;;;;;8.77;5.53;;;25.00;43.20;;;;;;4948063;28;20050;-84
2023/09/23 11:38:20;;;;;;;8.60;4.85;;;25.00;43.20;;;;;;4935349;28;20506;-81
2023/09/23 11:40:47;;;;;;;6.60;4.38;;;25.00;43.20;;;;;;4954474;28;20035;-82
2023/09/23 11:43:13;;;;;;;9.93;3.80;;;24.90;43.20;;;;;;4954400;28;20027;-81
2023/09/23 11:45:41;;;;;;;6.85;4.43;;;24.90;43.20;;;;;;4936910;28;20779;-82
2023/09/23 11:48:08;;;;;;;9.85;5.00;;;24.80;43.30;;;;;;4937150;29;20485;-82
2023/09/23 11:50:35;;;;;;;12.37;6.30;;;24.80;43.70;;;;;;4955114;28;20106;-83
2023/09/23 11:53:01;;;;;;;12.50;5.40;;;24.80;44.10;;;;;;4954989;28;20039;-83
2023/09/23 11:55:27;;;;;;;9.00;5.65;;;24.90;44.10;;;;;;4961043;28;20043;-81
2023/09/23 11:57:54;;;;;;;13.73;5.90;;;25.00;44.00;;;;;;4968229;28;20095;-82
2023/09/23 12:00:20;;;;;;;9.45;5.88;;;25.00;43.90;;;;;;4951991;29;20037;-81
2023/09/23 12:02:49;;;;;;;10.07;5.40;;;24.90;43.90;;;;;;4955100;28;20035;-81
2023/09/23 12:05:16;;;;;;;11.95;6.20;;;24.80;44.10;;;;;;4954805;28;20063;-81
2023/09/23 12:07:45;;;;;;;5.72;5.13;;;24.80;44.50;;;;;;4957266;28;20027;-81
2023/09/23 12:10:15;;;;;;;8.32;5.40;;;24.80;44.10;;;;;;4946095;29;20023;-82
2023/09/23 12:12:44;;;;;;;5.43;4.88;;;24.90;43.90;;;;;;4975595;28;20043;-82
2023/09/23 12:15:10;;;;;;;9.15;5.28;;;25.00;43.70;;;;;;4957570;28;20031;-83
2023/09/23 12:17:37;;;;;;;11.57;5.88;;;25.20;43.50;;;;;;4954533;28;20073;-82
2023/09/23 12:20:07;;;;;;;5.47;4.55;;;25.40;43.40;;;;;;4936735;29;20111;-82
2023/09/23 12:22:33;;;;;;;8.88;5.22;;;25.70;42.60;;;;;;4954086;28;20031;-82
2023/09/23 12:24:58;;;;;;;6.75;5.20;;;25.80;42.60;;;;;;4953787;29;20019;-83
2023/09/23 12:27:25;;;;;;;7.45;5.60;;;25.60;42.60;;;;;;4936561;29;20035;-83
2023/09/23 12:29:51;;;;;;;8.40;4.43;;;25.40;43.00;;;;;;4953579;29;20070;-82
2023/09/23 12:32:17;;;;;;;9.07;5.35;;;25.20;43.00;;;;;;4935811;29;20481;-83
2023/09/23 12:34:44;;;;;;;5.82;4.78;;;25.10;43.40;;;;;;4953237;28;20023;-83
2023/09/23 12:37:10;;;;;;;6.72;4.85;;;25.10;43.40;;;;;;4952861;28;20023;-81
2023/09/23 12:39:35;;;;;;;11.18;6.70;;;25.00;43.60;;;;;;4935990;28;20027;-81
2023/09/23 12:42:01;;;;;;;16.40;7.63;;;24.80;43.90;;;;;;4935443;29;20110;-85
2023/09/23 12:44:27;;;;;;;7.38;4.68;;;24.80;43.60;;;;;;4935586;29;20023;-83
2023/09/23 12:46:56;;;;;;;5.45;4.70;;;24.80;43.60;;;;;;4953042;28;20031;-85
2023/09/23 12:49:21;;;;;;;10.50;5.82;;;24.70;43.60;;;;;;4953232;28;20094;-84